createdAt,value
2018-06-25T00:00:34.958Z,99.90
2018-06-25T00:03:38.073Z,99.90
2018-06-25T00:06:41.157Z,99.90
2018-06-25T00:09:44.237Z,99.90
2018-06-25T00:12:47.332Z,99.60
2018-06-25T00:15:50.425Z,99.80
2018-06-25T00:18:53.492Z,99.80
2018-06-25T00:21:56.570Z,99.90
2018-06-25T00:24:59.641Z,99.90
2018-06-25T00:28:02.758Z,99.90
2018-06-25T00:31:05.845Z,99.90
2018-06-25T00:34:08.918Z,99.90
2018-06-25T00:37:11.981Z,99.90
2018-06-25T00:43:17.910Z,99.90
2018-06-25T00:46:20.996Z,99.90
2018-06-25T00:49:24.061Z,99.90
2018-06-25T00:52:27.122Z,99.90
2018-06-25T00:55:30.185Z,99.90
2018-06-25T00:58:45.872Z,99.90
2018-06-25T01:01:48.947Z,99.90
2018-06-25T01:04:52.045Z,99.90
2018-06-25T01:07:55.129Z,99.90
2018-06-25T01:10:58.209Z,99.90
2018-06-25T01:14:01.293Z,99.90
2018-06-25T01:17:04.590Z,99.90
2018-06-25T01:20:07.682Z,99.90
2018-06-25T01:23:10.785Z,99.90
2018-06-25T01:26:13.868Z,99.90
2018-06-25T01:29:16.964Z,99.90
2018-06-25T01:32:20.054Z,99.90
2018-06-25T01:35:23.149Z,99.90
2018-06-25T01:38:26.246Z,99.90
2018-06-25T01:41:29.362Z,99.90
2018-06-25T01:44:32.446Z,99.90
2018-06-25T01:47:35.530Z,99.90
2018-06-25T01:50:38.618Z,99.90
2018-06-25T01:53:41.674Z,99.90
2018-06-25T01:56:45.026Z,99.90
2018-06-25T01:59:48.085Z,99.90
2018-06-25T02:02:51.167Z,99.90
2018-06-25T02:05:54.232Z,99.90
2018-06-25T02:08:57.309Z,99.90
2018-06-25T02:12:00.361Z,99.90
2018-06-25T02:15:03.493Z,99.90
2018-06-25T02:18:06.563Z,99.70
2018-06-25T02:21:09.633Z,99.50
2018-06-25T02:24:12.712Z,99.70
2018-06-25T02:27:15.770Z,99.90
2018-06-25T02:33:23.721Z,99.70
2018-06-25T02:36:26.790Z,99.80
2018-06-25T02:45:35.589Z,99.50
2018-06-25T02:48:38.673Z,99.50
2018-06-25T02:51:41.750Z,99.50
2018-06-25T02:54:44.810Z,99.30
2018-06-25T02:57:47.881Z,99.30
2018-06-25T03:00:50.949Z,99.50
2018-06-25T03:03:54.034Z,99.60
2018-06-25T03:06:57.102Z,99.60
2018-06-25T03:10:00.181Z,99.60
2018-06-25T03:16:06.168Z,99.60
2018-06-25T03:19:09.259Z,99.50
2018-06-25T03:22:12.336Z,99.60
2018-06-25T03:28:18.292Z,99.50
2018-06-25T03:31:21.337Z,99.40
2018-06-25T03:34:24.429Z,99.40
2018-06-25T03:37:27.511Z,99.50
2018-06-25T03:40:30.553Z,99.60
2018-06-25T03:43:33.634Z,99.50
2018-06-25T03:46:36.957Z,99.40
2018-06-25T03:49:40.037Z,99.40
2018-06-25T03:52:43.105Z,99.40
2018-06-25T03:55:46.190Z,99.40
2018-06-25T03:58:49.269Z,99.50
2018-06-25T04:01:52.329Z,99.60
2018-06-25T04:04:55.396Z,99.50
2018-06-25T04:11:01.338Z,99.60
2018-06-25T04:14:04.431Z,99.30
2018-06-25T04:17:07.493Z,99.30
2018-06-25T04:20:10.621Z,99.30
2018-06-25T04:23:13.738Z,99.40
2018-06-25T04:26:16.805Z,99.50
2018-06-25T04:29:19.870Z,99.50
2018-06-25T04:32:22.933Z,99.50
2018-06-25T04:41:31.744Z,99.40
2018-06-25T04:44:34.837Z,99.20
2018-06-25T04:47:37.897Z,99.40
2018-06-25T04:50:40.973Z,99.20
2018-06-25T04:53:44.036Z,99.30
2018-06-25T04:56:47.086Z,99.10
2018-06-25T04:59:50.157Z,98.90
2018-06-25T05:02:53.226Z,98.60
2018-06-25T05:05:56.277Z,97.70
2018-06-25T05:08:59.326Z,96.90
2018-06-25T05:12:02.375Z,96.60
2018-06-25T05:15:05.429Z,96.20
2018-06-25T05:18:08.489Z,95.60
2018-06-25T05:21:11.569Z,95.00
2018-06-25T05:27:17.505Z,94.90
2018-06-25T05:30:20.569Z,95.40
2018-06-25T05:33:23.781Z,95.20
2018-06-25T05:36:26.868Z,95.70
2018-06-25T05:39:29.935Z,95.90
2018-06-25T05:42:32.994Z,95.80
2018-06-25T05:45:36.066Z,95.70
2018-06-25T05:48:39.118Z,96.10
2018-06-25T05:51:42.253Z,96.20
2018-06-25T05:54:45.315Z,96.00
2018-06-25T05:57:48.362Z,96.20
2018-06-25T06:03:54.385Z,96.20
2018-06-25T06:06:57.448Z,96.40
2018-06-25T06:10:00.510Z,96.60
2018-06-25T06:13:03.561Z,96.30
2018-06-25T06:16:06.622Z,95.80
2018-06-25T06:19:09.685Z,95.40
2018-06-25T06:22:12.736Z,95.20
2018-06-25T06:25:15.818Z,95.20
2018-06-25T06:28:18.861Z,94.90
2018-06-25T06:34:26.886Z,94.50
2018-06-25T06:37:29.963Z,94.50
2018-06-25T06:40:33.013Z,94.40
2018-06-25T06:43:36.178Z,94.80
2018-06-25T06:46:39.245Z,94.60
2018-06-25T06:49:42.286Z,94.10
2018-06-25T06:52:45.342Z,93.50
2018-06-25T06:55:48.405Z,92.70
2018-06-25T06:58:51.486Z,92.90
2018-06-25T07:01:54.533Z,93.00
2018-06-25T07:04:57.586Z,92.70
2018-06-25T07:08:00.653Z,93.00
2018-06-25T07:11:03.721Z,92.60
2018-06-25T07:14:07.648Z,91.90
2018-06-25T07:17:10.730Z,90.70
2018-06-25T07:20:13.797Z,88.30
2018-06-25T07:23:16.879Z,86.90
2018-06-25T07:26:21.246Z,87.50
2018-06-25T07:29:24.309Z,87.80
2018-06-25T07:32:27.364Z,88.90
2018-06-25T07:38:33.282Z,90.10
2018-06-25T07:41:36.423Z,89.00
2018-06-25T07:44:39.446Z,88.50
2018-06-25T07:47:42.527Z,85.90
2018-06-25T07:50:45.619Z,85.20
2018-06-25T07:53:48.670Z,85.20
2018-06-25T07:56:51.739Z,84.50
2018-06-25T07:59:54.839Z,86.20
2018-06-25T08:02:57.922Z,86.20
2018-06-25T08:06:00.990Z,85.00
2018-06-25T08:09:07.258Z,85.70
2018-06-25T08:12:10.350Z,86.60
2018-06-25T08:15:13.441Z,85.50
2018-06-25T08:18:16.537Z,86.00
2018-06-25T08:21:19.629Z,85.00
2018-06-25T08:24:22.689Z,85.50
2018-06-25T08:30:28.642Z,84.40
2018-06-25T08:33:31.722Z,83.90
2018-06-25T08:36:34.792Z,81.70
2018-06-25T08:39:37.881Z,81.50
2018-06-25T08:42:41.031Z,79.80
2018-06-25T08:45:44.110Z,81.20
2018-06-25T08:48:47.167Z,80.80
2018-06-25T08:51:50.305Z,81.30
2018-06-25T08:54:53.352Z,80.00
2018-06-25T08:57:56.417Z,79.40
2018-06-25T09:00:59.495Z,77.60
2018-06-25T09:04:02.586Z,78.30
2018-06-25T09:07:05.663Z,79.10
2018-06-25T09:10:08.749Z,79.10
2018-06-25T09:16:14.745Z,76.70
2018-06-25T09:22:20.708Z,73.60
2018-06-25T09:28:26.665Z,74.10
2018-06-25T09:31:29.725Z,74.30
2018-06-25T09:34:38.361Z,73.60
2018-06-25T09:37:41.429Z,73.50
2018-06-25T09:40:44.488Z,75.50
2018-06-25T09:46:50.403Z,78.90
2018-06-25T09:49:55.517Z,79.10
2018-06-25T09:52:58.819Z,78.60
2018-06-25T09:56:01.887Z,78.70
2018-06-25T09:59:05.461Z,75.50
2018-06-25T10:02:08.721Z,72.70
2018-06-25T10:05:17.818Z,72.80
2018-06-25T10:08:20.934Z,74.10
2018-06-25T10:11:24.033Z,76.40
2018-06-25T10:14:27.125Z,78.60
2018-06-25T10:17:30.197Z,79.10
2018-06-25T10:23:36.249Z,79.30
2018-06-25T10:36:24.021Z,77.90
2018-06-25T10:39:27.097Z,77.70
2018-06-25T10:42:30.163Z,77.40
2018-06-25T10:45:33.221Z,77.60
2018-06-25T10:51:39.181Z,75.40
2018-06-25T10:54:42.245Z,74.80
2018-06-25T10:57:45.298Z,76.40
2018-06-25T11:00:48.365Z,76.40
2018-06-25T11:03:51.517Z,77.10
2018-06-25T11:06:54.561Z,74.50
2018-06-25T11:09:57.620Z,73.90
2018-06-25T11:13:00.713Z,74.80
2018-06-25T11:16:04.110Z,75.40
2018-06-25T11:19:07.202Z,73.20
2018-06-25T11:22:10.463Z,72.40
2018-06-25T11:25:13.662Z,70.90
2018-06-25T11:28:16.924Z,71.20
2018-06-25T11:31:20.294Z,69.70
2018-06-25T11:34:23.582Z,69.80
2018-06-25T11:37:26.838Z,69.70
2018-06-25T11:40:30.035Z,70.20
2018-06-25T11:43:33.182Z,70.60
2018-06-25T11:46:36.338Z,71.30
2018-06-25T11:49:39.573Z,72.00
2018-06-25T11:55:45.775Z,72.70
2018-06-25T11:58:59.397Z,73.70
2018-06-25T12:08:08.524Z,72.40
2018-06-25T12:11:11.790Z,72.30
2018-06-25T12:14:14.982Z,74.40
2018-06-25T12:17:18.193Z,76.20
2018-06-25T12:20:21.325Z,77.30
2018-06-25T12:23:24.513Z,78.40
2018-06-25T12:26:27.667Z,78.80
2018-06-25T12:29:30.748Z,79.00
2018-06-25T12:32:33.812Z,79.50
2018-06-25T12:38:39.850Z,79.70
2018-06-25T12:41:42.932Z,80.80
2018-06-25T12:44:45.999Z,80.90
2018-06-25T12:47:49.052Z,81.60
2018-06-25T12:50:52.126Z,82.50
2018-06-25T12:53:55.533Z,82.50
2018-06-25T12:56:58.634Z,82.80
2018-06-25T13:00:16.152Z,81.80
2018-06-25T13:03:19.205Z,82.70
2018-06-25T13:06:22.299Z,82.90
2018-06-25T13:09:25.380Z,83.90
2018-06-25T13:12:28.526Z,84.80
2018-06-25T13:18:45.454Z,85.20
2018-06-25T13:21:48.638Z,85.90
2018-06-25T13:24:51.862Z,85.20
2018-06-25T13:27:55.057Z,83.60
2018-06-25T13:34:01.207Z,81.70
2018-06-25T13:40:37.929Z,81.80
2018-06-25T13:43:41.056Z,82.50
2018-06-25T13:46:44.280Z,85.00
2018-06-25T13:49:47.491Z,84.60
2018-06-25T13:52:50.706Z,85.30
2018-06-25T13:55:53.915Z,86.40
2018-06-25T14:02:00.175Z,87.00
2018-06-25T14:05:03.350Z,86.80
2018-06-25T14:08:06.582Z,85.40
2018-06-25T14:14:12.725Z,83.30
2018-06-25T14:17:15.927Z,83.00
2018-06-25T14:20:19.105Z,83.00
2018-06-25T14:23:22.302Z,82.40
2018-06-25T14:26:29.738Z,83.20
2018-06-25T14:29:53.797Z,82.90
2018-06-25T14:33:02.827Z,83.20
2018-06-25T14:36:06.210Z,82.80
2018-06-25T14:39:10.173Z,82.40
2018-06-25T14:42:13.322Z,82.90
2018-06-25T14:45:16.442Z,81.60
2018-06-25T14:48:19.675Z,80.50
2018-06-25T14:51:22.681Z,80.90
2018-06-25T14:54:25.745Z,80.20
2018-06-25T14:57:28.799Z,79.10
2018-06-25T15:00:31.865Z,79.50
2018-06-25T15:03:34.933Z,78.90
2018-06-25T15:06:38.018Z,77.90
2018-06-25T15:09:41.089Z,77.80
2018-06-25T15:13:08.429Z,77.40
2018-06-25T15:16:11.601Z,76.10
2018-06-25T15:19:14.677Z,76.30
2018-06-25T15:22:17.784Z,77.80
2018-06-25T15:25:20.846Z,79.50
2018-06-25T15:28:23.903Z,79.20
2018-06-25T15:31:27.006Z,79.50
2018-06-25T15:34:30.065Z,80.10
2018-06-25T15:37:33.117Z,80.90
2018-06-25T15:40:36.189Z,80.60
2018-06-25T15:43:39.264Z,80.70
2018-06-25T15:46:42.332Z,81.20
2018-06-25T15:49:45.392Z,82.00
2018-06-25T15:52:48.484Z,81.80
2018-06-25T15:55:51.574Z,81.80
2018-06-25T15:58:54.653Z,80.80
2018-06-25T16:01:57.718Z,80.50
2018-06-25T16:05:00.809Z,80.70
2018-06-25T16:08:03.901Z,79.90
2018-06-25T16:11:07.051Z,80.40
2018-06-25T16:14:10.109Z,80.70
2018-06-25T16:17:13.190Z,81.50
2018-06-25T16:20:16.262Z,81.90
2018-06-25T16:23:19.342Z,81.50
2018-06-25T16:26:22.466Z,81.70
2018-06-25T16:29:25.541Z,81.40
2018-06-25T16:32:28.654Z,80.60
2018-06-25T16:35:31.721Z,81.00
2018-06-25T16:38:34.814Z,80.60
2018-06-25T16:41:37.932Z,80.80
2018-06-25T16:44:41.009Z,81.00
2018-06-25T16:47:44.125Z,81.50
2018-06-25T16:50:47.189Z,81.70
2018-06-25T16:53:50.272Z,82.20
2018-06-25T16:56:53.350Z,82.50
2018-06-25T16:59:56.442Z,82.50
2018-06-25T17:02:59.549Z,82.60
2018-06-25T17:06:02.617Z,82.60
2018-06-25T17:09:09.322Z,82.70
2018-06-25T17:12:17.421Z,83.30
2018-06-25T17:15:20.515Z,83.70
2018-06-25T17:18:23.624Z,83.60
2018-06-25T17:21:26.683Z,83.50
2018-06-25T17:24:29.803Z,83.60
2018-06-25T17:27:32.929Z,83.80
2018-06-25T17:30:35.982Z,83.90
2018-06-25T17:33:39.074Z,84.30
2018-06-25T17:36:42.129Z,83.70
2018-06-25T17:42:48.069Z,83.70
2018-06-25T17:45:51.155Z,83.70
2018-06-25T17:49:03.917Z,84.40
2018-06-25T17:55:09.865Z,83.50
2018-06-25T17:58:12.938Z,83.30
2018-06-25T18:01:16.020Z,83.40
2018-06-25T18:04:19.097Z,83.90
2018-06-25T18:07:22.169Z,83.30
2018-06-25T18:10:25.237Z,83.70
2018-06-25T18:13:28.321Z,83.90
2018-06-25T18:16:33.501Z,84.60
2018-06-25T18:19:36.573Z,83.20
2018-06-25T18:25:42.532Z,82.40
2018-06-25T18:28:45.602Z,82.20
2018-06-25T18:31:58.335Z,82.60
2018-06-25T18:35:01.491Z,82.50
2018-06-25T18:38:04.625Z,82.70
2018-06-25T18:41:07.722Z,83.10
2018-06-25T18:47:14.054Z,84.30
2018-06-25T18:50:17.262Z,84.00
2018-06-25T18:53:21.123Z,84.00
2018-06-25T18:59:27.514Z,84.60
2018-06-25T19:05:33.680Z,85.20
2018-06-25T19:08:36.830Z,85.30
2018-06-25T19:11:40.210Z,85.40
2018-06-25T19:14:43.406Z,85.70
2018-06-25T19:17:46.667Z,86.10
2018-06-25T19:20:49.866Z,86.40
2018-06-25T19:23:53.083Z,86.80
2018-06-25T19:26:56.253Z,87.00
2018-06-25T19:39:11.222Z,86.60
2018-06-25T19:42:14.458Z,87.10
2018-06-25T19:45:17.625Z,87.10
2018-06-25T19:48:20.815Z,87.60
2018-06-25T19:51:24.046Z,87.50
2018-06-25T19:54:27.217Z,87.80
2018-06-25T19:57:30.321Z,87.60
2018-06-25T20:00:33.539Z,87.60
2018-06-25T20:03:36.794Z,87.60
2018-06-25T20:06:39.990Z,87.80
2018-06-25T20:09:43.151Z,87.70
2018-06-25T20:12:46.307Z,87.70
2018-06-25T20:18:52.466Z,87.90
2018-06-25T20:21:55.811Z,87.70
2018-06-25T20:24:59.173Z,87.90
2018-06-25T20:28:02.306Z,88.30
2018-06-25T20:31:05.498Z,88.30
2018-06-25T20:34:08.811Z,88.50
2018-06-25T20:40:15.088Z,88.40
2018-06-25T20:43:18.652Z,88.70
2018-06-25T20:49:24.823Z,88.90
2018-06-25T20:52:28.099Z,89.00
2018-06-25T20:55:31.341Z,89.90
2018-06-25T20:58:34.539Z,89.80
2018-06-25T21:01:37.753Z,89.80
2018-06-25T21:04:40.905Z,89.80
2018-06-25T21:07:43.950Z,89.30
2018-06-25T21:10:47.025Z,89.50
2018-06-25T21:13:50.083Z,88.90
2018-06-25T21:19:56.013Z,89.30
2018-06-25T21:22:59.074Z,88.70
2018-06-25T21:26:02.154Z,88.50
2018-06-25T21:29:05.488Z,88.60
2018-06-25T21:32:08.583Z,89.00
2018-06-25T21:35:11.645Z,89.30
2018-06-25T21:38:14.746Z,89.50
2018-06-25T21:41:17.837Z,89.70
2018-06-25T21:44:20.893Z,89.80
2018-06-25T21:50:26.838Z,90.00
2018-06-25T21:53:29.895Z,90.00
2018-06-25T21:56:32.985Z,90.00
2018-06-25T21:59:36.120Z,90.10
2018-06-25T22:02:39.209Z,90.20
2018-06-25T22:05:42.289Z,90.30
2018-06-25T22:08:46.165Z,90.30
2018-06-25T22:11:49.921Z,90.30
2018-06-25T22:14:52.981Z,90.30
2018-06-25T22:17:56.082Z,90.20
2018-06-25T22:20:59.181Z,90.20
2018-06-25T22:24:02.230Z,90.20
2018-06-25T22:27:05.289Z,90.30
2018-06-25T22:30:08.347Z,90.30
2018-06-25T22:33:11.451Z,90.50
2018-06-25T22:36:14.509Z,90.70
2018-06-25T22:39:17.577Z,90.80
2018-06-25T22:42:20.647Z,91.00
2018-06-25T22:45:23.717Z,91.20
2018-06-25T22:48:26.802Z,91.30
2018-06-25T22:51:30.105Z,91.30
2018-06-25T22:54:33.186Z,91.40
2018-06-25T22:57:36.296Z,91.50
2018-06-25T23:00:39.345Z,91.50
2018-06-25T23:03:42.482Z,91.60
2018-06-25T23:06:45.501Z,91.70
2018-06-25T23:12:51.429Z,91.70
2018-06-25T23:15:54.505Z,91.70
2018-06-25T23:18:57.578Z,91.90
2018-06-25T23:22:00.678Z,91.80
2018-06-25T23:25:03.756Z,92.00
2018-06-25T23:28:06.833Z,92.10
2018-06-25T23:31:09.910Z,92.10
2018-06-25T23:34:13.007Z,92.20
2018-06-25T23:37:16.137Z,92.30
2018-06-25T23:40:19.226Z,92.40
2018-06-25T23:43:22.449Z,92.60
2018-06-25T23:46:25.524Z,92.60
2018-06-25T23:49:28.605Z,92.70
2018-06-25T23:52:31.685Z,92.90
2018-06-25T23:55:34.761Z,93.00
